Park Hills, Iowa
Current Conditions -  °F | °C
As of 11:35 AM on Thursday 30 Oct 2014 (Local Time) from KPEA Reporting Station
Clear Clear  
Wind Chill: 57°   Ceiling: Unl
Heat Index: 57°   Visibility: 10mi
Dew Point: 39°   Wind: 6mph
Humidity: 51%   Direction: 170°S
Pressure: 30.03"   Gusts: NA
Location:  41.4592°N, 93.0401°W
Report Text: KPEA 301635Z AUTO 17005KT 10SM CLR 14/04 A3003 RMK AO2 T01380039
Loading
Personal Weather Stations






























Interactive Weather Map
Tropical Storm Tracking
New forecast layout! Learn more

10-Day Weather Forecast

Advertisements
Track Severe Weather on mobile